sensor_id;sensor_type;location;lat;lon;timestamp;P1;durP1;ratioP1;P2;durP2;ratioP2
69569;SDS011;56781;42.292;23.146;2023-03-23T00:01:01;41.55;;;15.25;;
69569;SDS011;56781;42.292;23.146;2023-03-23T00:03:27;47.27;;;16.03;;
69569;SDS011;56781;42.292;23.146;2023-03-23T00:05:54;31.00;;;11.75;;
69569;SDS011;56781;42.292;23.146;2023-03-23T00:08:24;52.17;;;15.55;;
69569;SDS011;56781;42.292;23.146;2023-03-23T00:10:51;26.92;;;9.27;;
69569;SDS011;56781;42.292;23.146;2023-03-23T00:13:25;20.58;;;8.10;;
69569;SDS011;56781;42.292;23.146;2023-03-23T00:15:51;17.10;;;7.30;;
69569;SDS011;56781;42.292;23.146;2023-03-23T00:18:18;16.63;;;7.63;;
69569;SDS011;56781;42.292;23.146;2023-03-23T00:20:48;35.45;;;16.65;;
69569;SDS011;56781;42.292;23.146;2023-03-23T00:23:20;33.97;;;14.55;;
69569;SDS011;56781;42.292;23.146;2023-03-23T00:25:51;33.75;;;15.43;;
69569;SDS011;56781;42.292;23.146;2023-03-23T00:28:22;32.27;;;13.57;;
69569;SDS011;56781;42.292;23.146;2023-03-23T00:30:56;30.15;;;13.48;;
69569;SDS011;56781;42.292;23.146;2023-03-23T00:33:27;31.50;;;14.07;;
69569;SDS011;56781;42.292;23.146;2023-03-23T00:35:55;37.30;;;15.73;;
69569;SDS011;56781;42.292;23.146;2023-03-23T00:38:22;42.10;;;18.42;;
69569;SDS011;56781;42.292;23.146;2023-03-23T00:40:49;32.83;;;13.50;;
69569;SDS011;56781;42.292;23.146;2023-03-23T00:43:16;25.77;;;9.93;;
69569;SDS011;56781;42.292;23.146;2023-03-23T00:45:44;32.40;;;11.90;;
69569;SDS011;56781;42.292;23.146;2023-03-23T00:48:24;32.92;;;11.85;;
69569;SDS011;56781;42.292;23.146;2023-03-23T00:50:51;114.15;;;25.88;;
69569;SDS011;56781;42.292;23.146;2023-03-23T00:53:17;68.37;;;17.67;;
69569;SDS011;56781;42.292;23.146;2023-03-23T00:55:45;96.78;;;24.27;;
69569;SDS011;56781;42.292;23.146;2023-03-23T00:58:12;22.65;;;9.20;;
69569;SDS011;56781;42.292;23.146;2023-03-23T01:00:39;19.63;;;9.07;;
69569;SDS011;56781;42.292;23.146;2023-03-23T01:03:06;118.32;;;29.02;;
69569;SDS011;56781;42.292;23.146;2023-03-23T01:05:34;79.20;;;23.97;;
69569;SDS011;56781;42.292;23.146;2023-03-23T01:08:01;150.48;;;34.33;;
69569;SDS011;56781;42.292;23.146;2023-03-23T01:10:28;34.88;;;12.63;;
69569;SDS011;56781;42.292;23.146;2023-03-23T01:13:00;37.97;;;12.45;;
69569;SDS011;56781;42.292;23.146;2023-03-23T01:15:28;24.35;;;9.25;;
69569;SDS011;56781;42.292;23.146;2023-03-23T01:17:54;23.43;;;9.47;;
69569;SDS011;56781;42.292;23.146;2023-03-23T01:20:21;22.15;;;9.13;;
69569;SDS011;56781;42.292;23.146;2023-03-23T01:22:48;23.05;;;8.93;;
69569;SDS011;56781;42.292;23.146;2023-03-23T01:25:14;23.92;;;10.05;;
69569;SDS011;56781;42.292;23.146;2023-03-23T01:27:40;23.80;;;9.55;;
69569;SDS011;56781;42.292;23.146;2023-03-23T01:30:09;24.20;;;9.77;;
69569;SDS011;56781;42.292;23.146;2023-03-23T01:32:37;25.63;;;10.43;;
69569;SDS011;56781;42.292;23.146;2023-03-23T01:35:04;23.02;;;9.65;;
69569;SDS011;56781;42.292;23.146;2023-03-23T01:37:31;25.90;;;11.70;;
69569;SDS011;56781;42.292;23.146;2023-03-23T01:39:57;39.15;;;15.55;;
69569;SDS011;56781;42.292;23.146;2023-03-23T01:42:24;32.33;;;15.23;;
69569;SDS011;56781;42.292;23.146;2023-03-23T01:47:17;26.85;;;11.00;;
69569;SDS011;56781;42.292;23.146;2023-03-23T01:49:48;20.95;;;8.98;;
69569;SDS011;56781;42.292;23.146;2023-03-23T01:52:17;19.70;;;8.70;;
69569;SDS011;56781;42.292;23.146;2023-03-23T01:54:49;20.08;;;8.80;;
69569;SDS011;56781;42.292;23.146;2023-03-23T01:57:19;19.33;;;8.27;;
69569;SDS011;56781;42.292;23.146;2023-03-23T01:59:49;18.55;;;8.40;;
69569;SDS011;56781;42.292;23.146;2023-03-23T02:02:17;18.33;;;7.68;;
69569;SDS011;56781;42.292;23.146;2023-03-23T02:04:46;18.80;;;7.97;;
69569;SDS011;56781;42.292;23.146;2023-03-23T02:07:13;17.83;;;6.93;;
69569;SDS011;56781;42.292;23.146;2023-03-23T02:09:41;16.52;;;7.50;;
69569;SDS011;56781;42.292;23.146;2023-03-23T02:12:07;35.15;;;11.52;;
69569;SDS011;56781;42.292;23.146;2023-03-23T02:14:33;19.20;;;7.68;;
69569;SDS011;56781;42.292;23.146;2023-03-23T02:17:09;19.53;;;8.70;;
69569;SDS011;56781;42.292;23.146;2023-03-23T02:20:06;44.13;;;22.52;;
69569;SDS011;56781;42.292;23.146;2023-03-23T02:22:50;30.08;;;15.82;;
69569;SDS011;56781;42.292;23.146;2023-03-23T02:28:31;20.27;;;10.70;;
69569;SDS011;56781;42.292;23.146;2023-03-23T02:31:21;53.70;;;35.53;;
69569;SDS011;56781;42.292;23.146;2023-03-23T02:37:04;17.05;;;7.38;;
69569;SDS011;56781;42.292;23.146;2023-03-23T02:39:49;15.73;;;6.93;;
69569;SDS011;56781;42.292;23.146;2023-03-23T02:42:23;14.05;;;6.10;;
69569;SDS011;56781;42.292;23.146;2023-03-23T02:44:53;15.23;;;6.73;;
69569;SDS011;56781;42.292;23.146;2023-03-23T02:47:22;19.08;;;7.35;;
69569;SDS011;56781;42.292;23.146;2023-03-23T02:49:51;21.55;;;8.60;;
69569;SDS011;56781;42.292;23.146;2023-03-23T02:52:21;16.45;;;6.05;;
69569;SDS011;56781;42.292;23.146;2023-03-23T02:54:50;19.40;;;7.47;;
69569;SDS011;56781;42.292;23.146;2023-03-23T02:57:18;19.50;;;7.57;;
69569;SDS011;56781;42.292;23.146;2023-03-23T02:59:47;40.25;;;13.10;;
69569;SDS011;56781;42.292;23.146;2023-03-23T03:02:14;21.52;;;8.82;;
69569;SDS011;56781;42.292;23.146;2023-03-23T03:05:02;24.00;;;8.75;;
69569;SDS011;56781;42.292;23.146;2023-03-23T03:07:53;31.35;;;10.60;;
69569;SDS011;56781;42.292;23.146;2023-03-23T03:21:25;32.42;;;11.88;;
69569;SDS011;56781;42.292;23.146;2023-03-23T03:23:55;16.43;;;6.50;;
69569;SDS011;56781;42.292;23.146;2023-03-23T03:26:24;14.25;;;5.95;;
69569;SDS011;56781;42.292;23.146;2023-03-23T03:28:52;15.07;;;6.25;;
69569;SDS011;56781;42.292;23.146;2023-03-23T03:31:20;14.98;;;6.15;;
69569;SDS011;56781;42.292;23.146;2023-03-23T03:33:53;13.02;;;5.85;;
69569;SDS011;56781;42.292;23.146;2023-03-23T03:36:27;13.90;;;5.80;;
69569;SDS011;56781;42.292;23.146;2023-03-23T03:39:03;13.10;;;5.75;;
69569;SDS011;56781;42.292;23.146;2023-03-23T03:41:33;16.67;;;6.00;;
69569;SDS011;56781;42.292;23.146;2023-03-23T03:43:59;13.20;;;5.70;;
69569;SDS011;56781;42.292;23.146;2023-03-23T03:46:26;13.88;;;6.03;;
69569;SDS011;56781;42.292;23.146;2023-03-23T03:48:55;16.23;;;5.67;;
69569;SDS011;56781;42.292;23.146;2023-03-23T03:51:25;11.93;;;5.30;;
69569;SDS011;56781;42.292;23.146;2023-03-23T03:53:52;14.98;;;6.10;;
69569;SDS011;56781;42.292;23.146;2023-03-23T03:56:18;15.32;;;6.20;;
69569;SDS011;56781;42.292;23.146;2023-03-23T03:58:45;15.83;;;6.87;;
69569;SDS011;56781;42.292;23.146;2023-03-23T04:01:13;16.40;;;6.80;;
69569;SDS011;56781;42.292;23.146;2023-03-23T04:03:41;13.70;;;6.38;;
69569;SDS011;56781;42.292;23.146;2023-03-23T04:06:08;16.55;;;6.70;;
69569;SDS011;56781;42.292;23.146;2023-03-23T04:08:35;15.20;;;6.75;;
69569;SDS011;56781;42.292;23.146;2023-03-23T04:11:10;18.53;;;7.33;;
69569;SDS011;56781;42.292;23.146;2023-03-23T04:13:39;18.95;;;7.70;;
69569;SDS011;56781;42.292;23.146;2023-03-23T04:16:06;19.13;;;8.10;;
69569;SDS011;56781;42.292;23.146;2023-03-23T04:18:33;25.63;;;8.85;;
69569;SDS011;56781;42.292;23.146;2023-03-23T04:21:00;21.42;;;8.25;;
69569;SDS011;56781;42.292;23.146;2023-03-23T04:23:28;23.17;;;9.30;;
69569;SDS011;56781;42.292;23.146;2023-03-23T04:25:58;30.23;;;12.38;;
69569;SDS011;56781;42.292;23.146;2023-03-23T04:28:24;28.25;;;11.70;;
69569;SDS011;56781;42.292;23.146;2023-03-23T04:30:51;22.60;;;9.57;;
69569;SDS011;56781;42.292;23.146;2023-03-23T04:33:18;21.27;;;8.80;;
69569;SDS011;56781;42.292;23.146;2023-03-23T04:35:45;19.73;;;8.03;;
69569;SDS011;56781;42.292;23.146;2023-03-23T04:38:16;19.52;;;8.10;;
69569;SDS011;56781;42.292;23.146;2023-03-23T04:40:45;23.10;;;10.65;;
69569;SDS011;56781;42.292;23.146;2023-03-23T04:43:12;22.92;;;9.05;;
69569;SDS011;56781;42.292;23.146;2023-03-23T04:45:40;22.08;;;8.90;;
69569;SDS011;56781;42.292;23.146;2023-03-23T04:48:11;26.43;;;8.53;;
69569;SDS011;56781;42.292;23.146;2023-03-23T04:50:37;21.48;;;8.30;;
69569;SDS011;56781;42.292;23.146;2023-03-23T04:53:03;19.85;;;7.63;;
69569;SDS011;56781;42.292;23.146;2023-03-23T04:55:33;28.77;;;9.45;;
69569;SDS011;56781;42.292;23.146;2023-03-23T04:58:02;29.08;;;10.00;;
69569;SDS011;56781;42.292;23.146;2023-03-23T05:00:31;27.40;;;9.07;;
69569;SDS011;56781;42.292;23.146;2023-03-23T05:02:59;39.70;;;9.98;;
69569;SDS011;56781;42.292;23.146;2023-03-23T05:05:26;36.17;;;10.20;;
69569;SDS011;56781;42.292;23.146;2023-03-23T05:07:54;32.75;;;9.90;;
69569;SDS011;56781;42.292;23.146;2023-03-23T05:10:21;32.47;;;10.93;;
69569;SDS011;56781;42.292;23.146;2023-03-23T05:12:47;44.77;;;15.67;;
69569;SDS011;56781;42.292;23.146;2023-03-23T05:15:14;39.65;;;11.73;;
69569;SDS011;56781;42.292;23.146;2023-03-23T05:17:41;39.30;;;9.93;;
69569;SDS011;56781;42.292;23.146;2023-03-23T05:20:12;28.80;;;8.93;;
69569;SDS011;56781;42.292;23.146;2023-03-23T05:22:40;22.63;;;8.63;;
69569;SDS011;56781;42.292;23.146;2023-03-23T05:25:07;32.57;;;9.30;;
69569;SDS011;56781;42.292;23.146;2023-03-23T05:27:36;29.65;;;7.45;;
69569;SDS011;56781;42.292;23.146;2023-03-23T05:30:03;43.53;;;8.13;;
69569;SDS011;56781;42.292;23.146;2023-03-23T05:32:30;74.65;;;8.25;;
69569;SDS011;56781;42.292;23.146;2023-03-23T05:34:56;59.95;;;8.32;;
69569;SDS011;56781;42.292;23.146;2023-03-23T05:37:26;45.83;;;9.90;;
69569;SDS011;56781;42.292;23.146;2023-03-23T05:40:02;62.50;;;9.18;;
69569;SDS011;56781;42.292;23.146;2023-03-23T05:42:32;52.40;;;11.25;;
69569;SDS011;56781;42.292;23.146;2023-03-23T05:45:00;83.97;;;13.27;;
69569;SDS011;56781;42.292;23.146;2023-03-23T05:47:27;24.42;;;8.13;;
69569;SDS011;56781;42.292;23.146;2023-03-23T05:49:53;61.57;;;9.87;;
69569;SDS011;56781;42.292;23.146;2023-03-23T05:52:19;51.58;;;11.32;;
69569;SDS011;56781;42.292;23.146;2023-03-23T05:54:45;76.50;;;10.60;;
69569;SDS011;56781;42.292;23.146;2023-03-23T05:57:11;34.00;;;10.77;;
69569;SDS011;56781;42.292;23.146;2023-03-23T05:59:37;34.40;;;9.47;;
69569;SDS011;56781;42.292;23.146;2023-03-23T06:02:04;43.10;;;9.68;;
69569;SDS011;56781;42.292;23.146;2023-03-23T06:04:30;41.55;;;9.20;;
69569;SDS011;56781;42.292;23.146;2023-03-23T06:07:01;27.77;;;11.27;;
69569;SDS011;56781;42.292;23.146;2023-03-23T06:09:27;102.10;;;22.63;;
69569;SDS011;56781;42.292;23.146;2023-03-23T06:11:54;47.10;;;10.50;;
69569;SDS011;56781;42.292;23.146;2023-03-23T06:14:19;29.10;;;6.28;;
69569;SDS011;56781;42.292;23.146;2023-03-23T06:16:46;26.75;;;9.43;;
69569;SDS011;56781;42.292;23.146;2023-03-23T06:19:12;13.50;;;6.27;;
69569;SDS011;56781;42.292;23.146;2023-03-23T06:21:39;23.42;;;7.75;;
69569;SDS011;56781;42.292;23.146;2023-03-23T06:24:05;27.25;;;8.73;;
69569;SDS011;56781;42.292;23.146;2023-03-23T06:26:32;22.17;;;5.72;;
69569;SDS011;56781;42.292;23.146;2023-03-23T06:29:00;24.20;;;6.25;;
69569;SDS011;56781;42.292;23.146;2023-03-23T06:31:26;45.10;;;8.50;;
69569;SDS011;56781;42.292;23.146;2023-03-23T06:33:53;29.23;;;6.05;;
69569;SDS011;56781;42.292;23.146;2023-03-23T06:36:19;35.10;;;7.38;;
69569;SDS011;56781;42.292;23.146;2023-03-23T06:38:45;49.83;;;10.75;;
69569;SDS011;56781;42.292;23.146;2023-03-23T06:41:11;21.63;;;6.50;;
69569;SDS011;56781;42.292;23.146;2023-03-23T06:43:37;26.95;;;6.97;;
69569;SDS011;56781;42.292;23.146;2023-03-23T06:46:05;27.75;;;7.30;;
69569;SDS011;56781;42.292;23.146;2023-03-23T06:48:31;35.85;;;11.40;;
69569;SDS011;56781;42.292;23.146;2023-03-23T06:50:57;32.17;;;11.88;;
69569;SDS011;56781;42.292;23.146;2023-03-23T06:53:23;31.37;;;12.57;;
69569;SDS011;56781;42.292;23.146;2023-03-23T06:55:50;30.27;;;10.38;;
69569;SDS011;56781;42.292;23.146;2023-03-23T06:58:16;23.13;;;9.10;;
69569;SDS011;56781;42.292;23.146;2023-03-23T07:00:42;22.45;;;11.68;;
69569;SDS011;56781;42.292;23.146;2023-03-23T07:03:11;15.20;;;9.10;;
69569;SDS011;56781;42.292;23.146;2023-03-23T07:05:37;22.73;;;11.05;;
69569;SDS011;56781;42.292;23.146;2023-03-23T07:08:03;22.65;;;10.45;;
69569;SDS011;56781;42.292;23.146;2023-03-23T07:10:30;16.27;;;9.25;;
69569;SDS011;56781;42.292;23.146;2023-03-23T07:12:57;9.40;;;5.60;;
69569;SDS011;56781;42.292;23.146;2023-03-23T07:15:24;10.98;;;6.00;;
69569;SDS011;56781;42.292;23.146;2023-03-23T07:17:50;16.38;;;9.88;;
69569;SDS011;56781;42.292;23.146;2023-03-23T07:20:16;10.80;;;6.05;;
69569;SDS011;56781;42.292;23.146;2023-03-23T07:22:42;9.87;;;5.93;;
69569;SDS011;56781;42.292;23.146;2023-03-23T07:25:08;12.90;;;7.93;;
69569;SDS011;56781;42.292;23.146;2023-03-23T07:27:35;10.43;;;5.85;;
69569;SDS011;56781;42.292;23.146;2023-03-23T07:30:01;13.27;;;7.43;;
69569;SDS011;56781;42.292;23.146;2023-03-23T07:32:27;11.40;;;6.23;;
69569;SDS011;56781;42.292;23.146;2023-03-23T07:34:53;12.50;;;6.80;;
69569;SDS011;56781;42.292;23.146;2023-03-23T07:37:19;14.82;;;8.25;;
69569;SDS011;56781;42.292;23.146;2023-03-23T07:39:45;12.35;;;6.82;;
69569;SDS011;56781;42.292;23.146;2023-03-23T07:42:12;13.02;;;7.00;;
69569;SDS011;56781;42.292;23.146;2023-03-23T07:44:37;13.00;;;7.50;;
69569;SDS011;56781;42.292;23.146;2023-03-23T07:47:03;11.45;;;6.68;;
69569;SDS011;56781;42.292;23.146;2023-03-23T07:49:29;13.30;;;5.50;;
69569;SDS011;56781;42.292;23.146;2023-03-23T07:51:56;11.88;;;6.80;;
69569;SDS011;56781;42.292;23.146;2023-03-23T07:54:23;10.50;;;5.78;;
69569;SDS011;56781;42.292;23.146;2023-03-23T07:56:50;12.52;;;6.38;;
69569;SDS011;56781;42.292;23.146;2023-03-23T07:59:16;20.00;;;9.70;;
69569;SDS011;56781;42.292;23.146;2023-03-23T08:01:42;14.65;;;7.97;;
69569;SDS011;56781;42.292;23.146;2023-03-23T08:04:08;13.18;;;7.55;;
69569;SDS011;56781;42.292;23.146;2023-03-23T08:06:34;12.20;;;6.63;;
69569;SDS011;56781;42.292;23.146;2023-03-23T08:09:01;12.15;;;6.65;;
69569;SDS011;56781;42.292;23.146;2023-03-23T08:11:33;11.60;;;6.63;;
69569;SDS011;56781;42.292;23.146;2023-03-23T08:14:02;11.50;;;6.93;;
69569;SDS011;56781;42.292;23.146;2023-03-23T08:16:29;12.98;;;7.28;;
69569;SDS011;56781;42.292;23.146;2023-03-23T08:18:55;10.77;;;6.13;;
69569;SDS011;56781;42.292;23.146;2023-03-23T08:21:22;11.70;;;6.00;;
69569;SDS011;56781;42.292;23.146;2023-03-23T08:23:48;10.93;;;6.17;;
69569;SDS011;56781;42.292;23.146;2023-03-23T08:26:14;10.70;;;6.35;;
69569;SDS011;56781;42.292;23.146;2023-03-23T08:28:40;10.52;;;5.15;;
69569;SDS011;56781;42.292;23.146;2023-03-23T08:31:12;10.35;;;5.68;;
69569;SDS011;56781;42.292;23.146;2023-03-23T08:33:40;10.27;;;5.20;;
69569;SDS011;56781;42.292;23.146;2023-03-23T08:36:07;9.27;;;5.20;;
69569;SDS011;56781;42.292;23.146;2023-03-23T08:38:34;8.82;;;4.35;;
69569;SDS011;56781;42.292;23.146;2023-03-23T08:41:02;9.27;;;4.57;;
69569;SDS011;56781;42.292;23.146;2023-03-23T08:43:31;11.80;;;4.68;;
69569;SDS011;56781;42.292;23.146;2023-03-23T08:45:58;8.00;;;4.18;;
69569;SDS011;56781;42.292;23.146;2023-03-23T08:48:24;9.75;;;5.53;;
69569;SDS011;56781;42.292;23.146;2023-03-23T08:50:50;8.80;;;5.07;;
69569;SDS011;56781;42.292;23.146;2023-03-23T08:53:20;9.15;;;4.75;;
69569;SDS011;56781;42.292;23.146;2023-03-23T08:55:46;8.35;;;4.45;;
69569;SDS011;56781;42.292;23.146;2023-03-23T08:58:14;6.90;;;4.00;;
69569;SDS011;56781;42.292;23.146;2023-03-23T09:00:40;9.98;;;4.95;;
69569;SDS011;56781;42.292;23.146;2023-03-23T09:03:06;7.55;;;4.40;;
69569;SDS011;56781;42.292;23.146;2023-03-23T09:05:32;8.63;;;4.57;;
69569;SDS011;56781;42.292;23.146;2023-03-23T09:07:58;7.63;;;4.00;;
69569;SDS011;56781;42.292;23.146;2023-03-23T09:10:25;8.80;;;5.10;;
69569;SDS011;56781;42.292;23.146;2023-03-23T09:12:53;10.38;;;5.63;;
69569;SDS011;56781;42.292;23.146;2023-03-23T09:15:20;17.27;;;7.50;;
69569;SDS011;56781;42.292;23.146;2023-03-23T09:17:47;10.52;;;5.75;;
69569;SDS011;56781;42.292;23.146;2023-03-23T09:20:17;10.43;;;5.72;;
69569;SDS011;56781;42.292;23.146;2023-03-23T09:22:48;9.15;;;4.55;;
69569;SDS011;56781;42.292;23.146;2023-03-23T09:25:17;21.90;;;10.32;;
69569;SDS011;56781;42.292;23.146;2023-03-23T09:27:50;11.23;;;6.40;;
69569;SDS011;56781;42.292;23.146;2023-03-23T09:30:19;8.52;;;4.47;;
69569;SDS011;56781;42.292;23.146;2023-03-23T09:32:45;10.10;;;5.75;;
69569;SDS011;56781;42.292;23.146;2023-03-23T09:35:13;8.65;;;4.82;;
69569;SDS011;56781;42.292;23.146;2023-03-23T09:37:42;7.78;;;3.65;;
69569;SDS011;56781;42.292;23.146;2023-03-23T09:40:11;8.75;;;5.38;;
69569;SDS011;56781;42.292;23.146;2023-03-23T09:42:44;9.65;;;4.90;;
69569;SDS011;56781;42.292;23.146;2023-03-23T09:45:27;9.48;;;3.42;;
69569;SDS011;56781;42.292;23.146;2023-03-23T09:50:41;6.82;;;3.45;;
69569;SDS011;56781;42.292;23.146;2023-03-23T09:53:16;7.00;;;3.10;;
69569;SDS011;56781;42.292;23.146;2023-03-23T09:56:00;8.00;;;4.18;;
69569;SDS011;56781;42.292;23.146;2023-03-23T09:58:33;9.18;;;5.25;;
69569;SDS011;56781;42.292;23.146;2023-03-23T10:01:10;7.55;;;4.15;;
69569;SDS011;56781;42.292;23.146;2023-03-23T10:03:44;9.05;;;4.10;;
69569;SDS011;56781;42.292;23.146;2023-03-23T10:06:16;9.40;;;3.55;;
69569;SDS011;56781;42.292;23.146;2023-03-23T10:08:44;8.00;;;4.75;;
69569;SDS011;56781;42.292;23.146;2023-03-23T10:11:17;6.50;;;3.75;;
69569;SDS011;56781;42.292;23.146;2023-03-23T10:16:35;7.45;;;3.42;;
69569;SDS011;56781;42.292;23.146;2023-03-23T10:22:14;7.70;;;4.28;;
69569;SDS011;56781;42.292;23.146;2023-03-23T10:24:51;6.88;;;4.00;;
69569;SDS011;56781;42.292;23.146;2023-03-23T10:27:38;7.35;;;4.13;;
69569;SDS011;56781;42.292;23.146;2023-03-23T10:30:19;8.52;;;3.58;;
69569;SDS011;56781;42.292;23.146;2023-03-23T10:39:30;5.70;;;2.80;;
69569;SDS011;56781;42.292;23.146;2023-03-23T10:41:31;7.93;;;4.30;;
69569;SDS011;56781;42.292;23.146;2023-03-23T10:43:57;8.13;;;4.18;;
69569;SDS011;56781;42.292;23.146;2023-03-23T10:49:15;13.20;;;5.50;;
69569;SDS011;56781;42.292;23.146;2023-03-23T10:51:49;7.25;;;4.30;;
69569;SDS011;56781;42.292;23.146;2023-03-23T10:54:26;7.28;;;4.60;;
69569;SDS011;56781;42.292;23.146;2023-03-23T10:56:57;10.00;;;5.93;;
69569;SDS011;56781;42.292;23.146;2023-03-23T10:59:28;7.00;;;4.30;;
69569;SDS011;56781;42.292;23.146;2023-03-23T11:01:58;12.68;;;5.50;;
69569;SDS011;56781;42.292;23.146;2023-03-23T11:04:28;8.35;;;4.55;;
69569;SDS011;56781;42.292;23.146;2023-03-23T11:06:59;11.05;;;5.20;;
69569;SDS011;56781;42.292;23.146;2023-03-23T11:09:36;8.95;;;4.00;;
69569;SDS011;56781;42.292;23.146;2023-03-23T11:12:04;6.00;;;3.47;;
69569;SDS011;56781;42.292;23.146;2023-03-23T11:14:42;6.22;;;3.35;;
69569;SDS011;56781;42.292;23.146;2023-03-23T11:17:23;8.55;;;3.85;;
69569;SDS011;56781;42.292;23.146;2023-03-23T11:19:50;6.38;;;3.58;;
69569;SDS011;56781;42.292;23.146;2023-03-23T11:22:26;14.95;;;5.97;;
69569;SDS011;56781;42.292;23.146;2023-03-23T11:24:58;8.33;;;4.40;;
69569;SDS011;56781;42.292;23.146;2023-03-23T11:27:27;8.93;;;4.47;;
69569;SDS011;56781;42.292;23.146;2023-03-23T11:29:55;6.57;;;3.58;;
69569;SDS011;56781;42.292;23.146;2023-03-23T11:32:36;8.05;;;4.15;;
69569;SDS011;56781;42.292;23.146;2023-03-23T11:35:04;11.13;;;4.88;;
69569;SDS011;56781;42.292;23.146;2023-03-23T11:37:44;12.67;;;5.20;;
69569;SDS011;56781;42.292;23.146;2023-03-23T11:40:19;7.25;;;3.75;;
69569;SDS011;56781;42.292;23.146;2023-03-23T11:42:48;6.35;;;3.40;;
69569;SDS011;56781;42.292;23.146;2023-03-23T11:45:32;12.75;;;5.45;;
69569;SDS011;56781;42.292;23.146;2023-03-23T11:56:51;7.68;;;3.92;;
69569;SDS011;56781;42.292;23.146;2023-03-23T11:59:27;11.77;;;4.88;;
69569;SDS011;56781;42.292;23.146;2023-03-23T12:18:23;7.83;;;4.30;;
69569;SDS011;56781;42.292;23.146;2023-03-23T12:24:08;8.20;;;4.57;;
69569;SDS011;56781;42.292;23.146;2023-03-23T12:26:50;7.90;;;3.78;;
69569;SDS011;56781;42.292;23.146;2023-03-23T12:29:29;6.95;;;3.60;;
69569;SDS011;56781;42.292;23.146;2023-03-23T12:35:18;10.75;;;5.25;;
69569;SDS011;56781;42.292;23.146;2023-03-23T12:41:05;9.10;;;4.10;;
69569;SDS011;56781;42.292;23.146;2023-03-23T12:43:50;5.57;;;3.13;;
69569;SDS011;56781;42.292;23.146;2023-03-23T12:55:07;6.38;;;3.55;;
69569;SDS011;56781;42.292;23.146;2023-03-23T12:57:55;8.43;;;4.25;;
69569;SDS011;56781;42.292;23.146;2023-03-23T13:01:08;9.90;;;4.70;;
69569;SDS011;56781;42.292;23.146;2023-03-23T13:03:21;7.32;;;3.85;;
69569;SDS011;56781;42.292;23.146;2023-03-23T13:05:54;6.68;;;4.00;;
69569;SDS011;56781;42.292;23.146;2023-03-23T13:08:30;7.63;;;4.35;;
69569;SDS011;56781;42.292;23.146;2023-03-23T13:11:04;7.32;;;4.20;;
69569;SDS011;56781;42.292;23.146;2023-03-23T13:13:55;7.63;;;3.87;;
69569;SDS011;56781;42.292;23.146;2023-03-23T13:16:36;9.65;;;4.82;;
69569;SDS011;56781;42.292;23.146;2023-03-23T13:19:16;7.35;;;4.22;;
69569;SDS011;56781;42.292;23.146;2023-03-23T13:22:28;6.80;;;4.00;;
69569;SDS011;56781;42.292;23.146;2023-03-23T13:25:06;8.75;;;4.30;;
69569;SDS011;56781;42.292;23.146;2023-03-23T13:27:37;8.07;;;4.00;;
69569;SDS011;56781;42.292;23.146;2023-03-23T13:30:03;9.20;;;4.03;;
69569;SDS011;56781;42.292;23.146;2023-03-23T13:32:35;6.45;;;3.33;;
69569;SDS011;56781;42.292;23.146;2023-03-23T13:35:04;8.25;;;3.67;;
69569;SDS011;56781;42.292;23.146;2023-03-23T13:37:40;6.50;;;3.60;;
69569;SDS011;56781;42.292;23.146;2023-03-23T13:42:46;6.13;;;3.55;;
69569;SDS011;56781;42.292;23.146;2023-03-23T13:50:51;6.70;;;3.92;;
69569;SDS011;56781;42.292;23.146;2023-03-23T13:53:27;6.47;;;3.73;;
69569;SDS011;56781;42.292;23.146;2023-03-23T13:58:49;8.50;;;4.70;;
69569;SDS011;56781;42.292;23.146;2023-03-23T14:01:40;6.93;;;3.88;;
69569;SDS011;56781;42.292;23.146;2023-03-23T14:04:10;7.38;;;4.10;;
69569;SDS011;56781;42.292;23.146;2023-03-23T14:06:39;6.37;;;3.50;;
69569;SDS011;56781;42.292;23.146;2023-03-23T14:09:07;6.20;;;4.05;;
69569;SDS011;56781;42.292;23.146;2023-03-23T14:11:55;9.57;;;4.28;;
69569;SDS011;56781;42.292;23.146;2023-03-23T14:14:31;6.93;;;4.28;;
69569;SDS011;56781;42.292;23.146;2023-03-23T14:19:39;7.07;;;4.00;;
69569;SDS011;56781;42.292;23.146;2023-03-23T14:25:17;7.25;;;4.28;;
69569;SDS011;56781;42.292;23.146;2023-03-23T14:27:46;5.53;;;3.03;;
69569;SDS011;56781;42.292;23.146;2023-03-23T14:30:13;5.90;;;3.50;;
69569;SDS011;56781;42.292;23.146;2023-03-23T14:32:44;8.13;;;4.50;;
69569;SDS011;56781;42.292;23.146;2023-03-23T14:35:19;8.50;;;3.65;;
69569;SDS011;56781;42.292;23.146;2023-03-23T14:37:52;9.80;;;5.10;;
69569;SDS011;56781;42.292;23.146;2023-03-23T14:40:21;11.32;;;5.63;;
69569;SDS011;56781;42.292;23.146;2023-03-23T14:42:47;8.32;;;3.85;;
69569;SDS011;56781;42.292;23.146;2023-03-23T14:45:18;6.20;;;3.80;;
69569;SDS011;56781;42.292;23.146;2023-03-23T14:47:47;7.95;;;4.03;;
69569;SDS011;56781;42.292;23.146;2023-03-23T14:50:24;6.82;;;3.92;;
69569;SDS011;56781;42.292;23.146;2023-03-23T14:53:03;11.00;;;5.20;;
69569;SDS011;56781;42.292;23.146;2023-03-23T14:55:42;6.15;;;3.67;;
69569;SDS011;56781;42.292;23.146;2023-03-23T14:58:12;6.90;;;4.17;;
69569;SDS011;56781;42.292;23.146;2023-03-23T15:00:42;8.73;;;4.55;;
69569;SDS011;56781;42.292;23.146;2023-03-23T15:03:14;9.25;;;5.50;;
69569;SDS011;56781;42.292;23.146;2023-03-23T15:05:43;6.38;;;3.72;;
69569;SDS011;56781;42.292;23.146;2023-03-23T15:08:22;10.02;;;5.70;;
69569;SDS011;56781;42.292;23.146;2023-03-23T15:13:44;7.25;;;4.43;;
69569;SDS011;56781;42.292;23.146;2023-03-23T15:16:17;7.45;;;4.53;;
69569;SDS011;56781;42.292;23.146;2023-03-23T15:18:49;9.45;;;5.18;;
69569;SDS011;56781;42.292;23.146;2023-03-23T15:21:22;8.88;;;4.20;;
69569;SDS011;56781;42.292;23.146;2023-03-23T15:24:02;6.40;;;3.63;;
69569;SDS011;56781;42.292;23.146;2023-03-23T15:26:44;8.07;;;4.38;;
69569;SDS011;56781;42.292;23.146;2023-03-23T15:31:50;9.85;;;4.22;;
69569;SDS011;56781;42.292;23.146;2023-03-23T15:34:27;6.82;;;3.90;;
69569;SDS011;56781;42.292;23.146;2023-03-23T15:37:03;7.30;;;3.80;;
69569;SDS011;56781;42.292;23.146;2023-03-23T15:39:30;6.60;;;3.70;;
69569;SDS011;56781;42.292;23.146;2023-03-23T15:41:58;7.07;;;3.95;;
69569;SDS011;56781;42.292;23.146;2023-03-23T15:44:27;6.55;;;4.05;;
69569;SDS011;56781;42.292;23.146;2023-03-23T15:49:41;9.17;;;5.43;;
69569;SDS011;56781;42.292;23.146;2023-03-23T15:52:09;8.93;;;4.70;;
69569;SDS011;56781;42.292;23.146;2023-03-23T15:54:37;8.73;;;5.03;;
69569;SDS011;56781;42.292;23.146;2023-03-23T15:57:03;13.15;;;5.50;;
69569;SDS011;56781;42.292;23.146;2023-03-23T15:59:29;8.93;;;5.22;;
69569;SDS011;56781;42.292;23.146;2023-03-23T16:01:56;7.00;;;4.27;;
69569;SDS011;56781;42.292;23.146;2023-03-23T16:04:23;9.98;;;5.38;;
69569;SDS011;56781;42.292;23.146;2023-03-23T16:06:52;8.80;;;5.22;;
69569;SDS011;56781;42.292;23.146;2023-03-23T16:09:22;8.85;;;6.28;;
69569;SDS011;56781;42.292;23.146;2023-03-23T16:11:49;8.10;;;4.88;;
69569;SDS011;56781;42.292;23.146;2023-03-23T16:14:16;13.10;;;6.73;;
69569;SDS011;56781;42.292;23.146;2023-03-23T16:16:44;17.88;;;9.18;;
69569;SDS011;56781;42.292;23.146;2023-03-23T16:19:16;12.73;;;7.95;;
69569;SDS011;56781;42.292;23.146;2023-03-23T16:21:45;15.75;;;8.82;;
69569;SDS011;56781;42.292;23.146;2023-03-23T16:24:13;10.18;;;6.55;;
69569;SDS011;56781;42.292;23.146;2023-03-23T16:26:40;11.87;;;7.63;;